Basic Brave — 3EVG4 — position and weather

sailwx.info

Track history (hours):
 
Tides and Currents Weather Stations Pressure Air Temp Water Temp Dewpoint Dewpoint Depression Visibility Wind Speed Wind Dir Waves Ship Positions

Basic Brave

Last reported at 2017-Oct-31 07:10 UTC. Time now 2017-Nov-18 21:29 UTC.
Position N 30°14' W 133°38'.
Warning: this ship's position is 18 days out of date.

Length 180 m; draft 9 m.

Type: Cargo ship. MMSI: 373701000.

Date/timePositionNaut miles runAvg speedWind from/ knotsBaromVisibWave heightAir tempDewpointWater temp
2017-Oct-31 07:10N 30°14' W 133°38'411.8
2017-Oct-31 06:47N 30°13' W 133°33'511.7
2017-Oct-31 06:23N 30°11' W 133°28'2310.7
2017-Oct-31 04:13N 30°04' W 133°03'9810.2
2017-Oct-30 18:39N 29°33' W 131°16'51710.3
2017-Oct-28 16:37N 26°17' W 122°15'110.2
2017-Oct-28 16:30N 26°17' W 122°14'610.1
2017-Oct-28 15:57N 26°15' W 122°08'15610.1
2017-Oct-28 00:27N 25°12' W 119°30'10 9.9
2017-Oct-27 23:28N 25°08' W 119°20'9 9.9
2017-Oct-27 22:33N 25°03' W 119°11'0 9.8
2017-Oct-27 22:30N 25°03' W 119°11'510.0
2017-Oct-27 22:00N 25°01' W 119°06'5 9.9
2017-Oct-27 21:30N 24°58' W 119°01'5 9.9
2017-Oct-27 21:00N 24°56' W 118°56'5 9.7
2017-Oct-27 20:29N 24°54' W 118°51'5 9.9
2017-Oct-27 19:57N 24°52' W 118°46'510.0
2017-Oct-27 19:30N 24°50' W 118°41'510.0
2017-Oct-27 19:00N 24°48' W 118°36'1710.1
2017-Oct-27 17:20N 24°40' W 118°20'410.2
2017-Oct-27 16:58N 24°38' W 118°16'610.2
2017-Oct-27 16:21N 24°34' W 118°10'2010.8
2017-Oct-27 14:32N 24°26' W 117°51'011.7
2017-Oct-27 14:30N 24°26' W 117°51'7010.8
2017-Oct-27 08:02N 23°53' W 116°43'011.0
2017-Oct-27 08:00N 23°53' W 116°43'1810.6
2017-Oct-27 06:21N 23°45' W 116°26'  
Track history (hours):
 
Tides and Currents Weather Stations Pressure Air Temp Water Temp Dewpoint Dewpoint Depression Visibility Wind Speed Wind Dir Waves Ship Positions

Basic Brave

Last reported at 2017-Oct-31 07:10 UTC. Time now 2017-Nov-18 21:29 UTC.
Position N 30°14' W 133°38'.
Warning: this ship's position is 18 days out of date.

Length 180 m; draft 9 m.

Type: Cargo ship. MMSI: 373701000.

Date/timePositionNaut miles runAvg speedWind from/ knotsBaromVisibWave heightAir tempDewpointWater temp
2017-Oct-31 07:10N 30°14' W 133°38'411.8
2017-Oct-31 06:47N 30°13' W 133°33'511.7
2017-Oct-31 06:23N 30°11' W 133°28'2310.7
2017-Oct-31 04:13N 30°04' W 133°03'9810.2
2017-Oct-30 18:39N 29°33' W 131°16'51710.3
2017-Oct-28 16:37N 26°17' W 122°15'110.2
2017-Oct-28 16:30N 26°17' W 122°14'610.1
2017-Oct-28 15:57N 26°15' W 122°08'15610.1
2017-Oct-28 00:27N 25°12' W 119°30'10 9.9
2017-Oct-27 23:28N 25°08' W 119°20'9 9.9
2017-Oct-27 22:33N 25°03' W 119°11'0 9.8
2017-Oct-27 22:30N 25°03' W 119°11'510.0
2017-Oct-27 22:00N 25°01' W 119°06'5 9.9
2017-Oct-27 21:30N 24°58' W 119°01'5 9.9
2017-Oct-27 21:00N 24°56' W 118°56'5 9.7
2017-Oct-27 20:29N 24°54' W 118°51'5 9.9
2017-Oct-27 19:57N 24°52' W 118°46'510.0
2017-Oct-27 19:30N 24°50' W 118°41'510.0
2017-Oct-27 19:00N 24°48' W 118°36'1710.1
2017-Oct-27 17:20N 24°40' W 118°20'410.2
2017-Oct-27 16:58N 24°38' W 118°16'610.2
2017-Oct-27 16:21N 24°34' W 118°10'2010.8
2017-Oct-27 14:32N 24°26' W 117°51'011.7
2017-Oct-27 14:30N 24°26' W 117°51'7010.8
2017-Oct-27 08:02N 23°53' W 116°43'011.0
2017-Oct-27 08:00N 23°53' W 116°43'1810.6
2017-Oct-27 06:21N 23°45' W 116°26'  

Dump ship's entire track history